createdAt,value
2022-10-25T00:03:54.715Z,14.60
2022-10-25T00:09:02.115Z,14.61
2022-10-25T00:14:09.935Z,14.60
2022-10-25T00:19:14.843Z,14.55
2022-10-25T00:24:22.292Z,14.51
2022-10-25T00:29:27.255Z,14.47
2022-10-25T00:34:32.139Z,14.33
2022-10-25T00:39:39.524Z,14.26
2022-10-25T00:44:55.908Z,14.24
2022-10-25T00:50:06.465Z,14.21
2022-10-25T00:55:17.154Z,14.24
2022-10-25T01:00:22.581Z,14.21
2022-10-25T01:05:27.331Z,14.21
2022-10-25T01:10:35.102Z,14.18
2022-10-25T01:15:49.265Z,14.20
2022-10-25T01:21:42.676Z,14.15
2022-10-25T01:27:12.991Z,14.19
2022-10-25T01:32:25.213Z,14.30
2022-10-25T01:37:37.878Z,14.25
2022-10-25T01:42:52.003Z,14.31
2022-10-25T01:48:05.699Z,14.26
2022-10-25T01:53:10.580Z,14.24
2022-10-25T01:58:28.194Z,14.06
2022-10-25T02:03:42.806Z,14.07
2022-10-25T02:08:51.021Z,13.99
2022-10-25T02:14:04.948Z,13.97
2022-10-25T02:19:15.821Z,13.90
2022-10-25T02:24:24.514Z,13.79
2022-10-25T02:29:32.501Z,13.79
2022-10-25T02:34:40.001Z,13.81
2022-10-25T02:39:45.207Z,13.89
2022-10-25T02:44:49.906Z,13.85
2022-10-25T02:49:57.273Z,13.83
2022-10-25T02:55:02.344Z,13.88
2022-10-25T03:00:08.941Z,13.84
2022-10-25T03:05:16.317Z,13.74
2022-10-25T03:10:21.388Z,13.88
2022-10-25T03:15:26.362Z,13.93
2022-10-25T03:20:34.236Z,13.94
2022-10-25T03:25:39.373Z,13.97
2022-10-25T03:30:45.635Z,14.05
2022-10-25T03:35:55.606Z,14.04
2022-10-25T03:41:00.394Z,14.03
2022-10-25T03:46:05.259Z,14.02
2022-10-25T03:51:12.605Z,13.98
2022-10-25T03:56:17.877Z,13.98
2022-10-25T04:01:23.152Z,13.89
2022-10-25T04:06:30.911Z,13.81
2022-10-25T04:11:35.835Z,13.85
2022-10-25T04:16:41.325Z,13.78
2022-10-25T04:21:49.018Z,13.68
2022-10-25T04:26:55.112Z,13.72
2022-10-25T04:31:59.982Z,13.72
2022-10-25T04:37:07.876Z,13.63
2022-10-25T04:42:13.241Z,13.64
2022-10-25T04:47:20.506Z,13.68
2022-10-25T04:52:28.004Z,13.63
2022-10-25T04:57:34.361Z,13.61
2022-10-25T05:02:39.221Z,13.64
2022-10-25T05:07:49.449Z,13.52
2022-10-25T05:12:56.918Z,13.56
2022-10-25T05:18:02.280Z,13.40
2022-10-25T05:23:11.718Z,13.43
2022-10-25T05:28:17.117Z,13.47
2022-10-25T05:33:22.029Z,13.23
2022-10-25T05:38:32.024Z,13.30
2022-10-25T05:43:39.972Z,13.24
2022-10-25T05:48:48.943Z,13.36
2022-10-25T05:53:59.026Z,13.29
2022-10-25T05:59:10.440Z,13.33
2022-10-25T06:04:16.092Z,13.36
2022-10-25T06:09:25.715Z,13.45
2022-10-25T06:14:30.446Z,13.36
2022-10-25T06:19:35.433Z,13.41
2022-10-25T06:24:42.959Z,13.40
2022-10-25T06:29:47.972Z,13.45
2022-10-25T06:34:53.092Z,13.64
2022-10-25T06:40:00.429Z,13.72
2022-10-25T06:45:05.343Z,14.00
2022-10-25T06:50:11.669Z,14.04
2022-10-25T06:55:22.324Z,14.33
2022-10-25T07:00:27.104Z,14.44
2022-10-25T07:05:32.059Z,14.38
2022-10-25T07:10:41.727Z,14.59
2022-10-25T07:15:46.642Z,14.72
2022-10-25T07:20:53.904Z,14.83
2022-10-25T07:26:02.130Z,14.78
2022-10-25T07:31:07.121Z,14.88
2022-10-25T07:36:12.469Z,14.98
2022-10-25T07:41:20.351Z,15.28
2022-10-25T07:46:26.321Z,15.43
2022-10-25T07:51:39.547Z,15.64
2022-10-25T07:56:46.971Z,15.69
2022-10-25T08:01:54.060Z,18.24
2022-10-25T08:07:02.090Z,19.78
2022-10-25T08:12:09.992Z,19.76
2022-10-25T08:17:16.595Z,19.85
2022-10-25T08:22:21.421Z,20.91
2022-10-25T08:27:29.044Z,22.31
2022-10-25T08:32:35.778Z,20.60
2022-10-25T08:37:40.788Z,20.28
2022-10-25T08:43:02.700Z,20.56
2022-10-25T08:48:14.550Z,22.31
2022-10-25T08:53:25.488Z,21.13
2022-10-25T08:58:47.047Z,20.95
2022-10-25T09:03:54.816Z,19.90
2022-10-25T09:09:13.657Z,18.61
2022-10-25T09:14:35.044Z,18.38
2022-10-25T09:19:47.777Z,18.73
2022-10-25T09:25:00.882Z,20.27
2022-10-25T09:30:11.535Z,19.88
2022-10-25T09:35:22.492Z,19.94
2022-10-25T09:40:32.734Z,18.44
2022-10-25T09:45:48.742Z,17.40
2022-10-25T09:50:59.782Z,17.19
2022-10-25T09:56:07.783Z,17.24
2022-10-25T10:01:19.736Z,17.45
2022-10-25T10:06:28.402Z,17.52
2022-10-25T10:11:35.155Z,17.68
2022-10-25T10:16:46.976Z,17.36
2022-10-25T10:21:54.513Z,17.48
2022-10-25T10:27:02.247Z,16.89
2022-10-25T10:32:27.163Z,17.12
2022-10-25T10:37:33.792Z,17.10
2022-10-25T10:42:41.442Z,16.83
2022-10-25T10:47:59.718Z,17.07
2022-10-25T10:53:11.063Z,16.91
2022-10-25T10:58:19.233Z,17.06
2022-10-25T11:03:59.151Z,17.11
2022-10-25T11:09:20.498Z,17.06
2022-10-25T11:14:27.614Z,16.80
2022-10-25T11:19:50.135Z,16.88
2022-10-25T11:25:10.016Z,16.69
2022-10-25T11:30:19.297Z,17.19
2022-10-25T11:35:41.212Z,17.10
2022-10-25T11:40:51.565Z,17.49
2022-10-25T11:46:02.474Z,17.91
2022-10-25T11:51:21.235Z,18.54
2022-10-25T11:56:41.187Z,18.64
2022-10-25T12:02:00.483Z,18.06
2022-10-25T12:07:16.186Z,17.94
2022-10-25T12:12:25.298Z,17.80
2022-10-25T12:17:33.219Z,17.27
2022-10-25T12:22:46.777Z,17.29
2022-10-25T12:27:57.521Z,17.26
2022-10-25T12:33:09.758Z,17.66
2022-10-25T12:38:25.143Z,18.83
2022-10-25T12:43:38.071Z,17.82
2022-10-25T12:49:16.807Z,17.57
2022-10-25T12:54:50.798Z,17.59
2022-10-25T13:00:07.275Z,17.32
2022-10-25T13:05:35.317Z,17.17
2022-10-25T13:10:46.728Z,18.06
2022-10-25T13:15:53.814Z,18.55
2022-10-25T13:20:58.832Z,17.78
2022-10-25T13:26:12.228Z,17.71
2022-10-25T13:31:46.666Z,17.69
2022-10-25T13:36:52.811Z,17.72
2022-10-25T13:42:05.378Z,17.74
2022-10-25T13:47:36.715Z,17.65
2022-10-25T13:52:48.558Z,17.48
2022-10-25T13:57:58.478Z,17.33
2022-10-25T14:03:25.918Z,17.14
2022-10-25T14:08:34.426Z,16.90
2022-10-25T14:13:51.331Z,16.17
2022-10-25T14:18:58.265Z,16.28
2022-10-25T14:24:10.358Z,16.47
2022-10-25T14:29:26.663Z,16.14
2022-10-25T14:34:32.505Z,16.28
2022-10-25T14:39:37.301Z,16.63
2022-10-25T14:44:52.299Z,16.62
2022-10-25T14:49:57.510Z,16.74
2022-10-25T14:55:07.305Z,16.59
2022-10-25T15:00:23.915Z,16.20
2022-10-25T15:05:28.915Z,16.10
2022-10-25T15:10:45.978Z,15.85
2022-10-25T15:15:54.380Z,16.19
2022-10-25T15:21:12.205Z,16.06
2022-10-25T15:26:28.011Z,15.93
2022-10-25T15:31:35.684Z,16.05
2022-10-25T15:36:42.299Z,15.83
2022-10-25T15:41:47.239Z,15.59
2022-10-25T15:46:54.811Z,15.83
2022-10-25T15:52:02.008Z,15.88
2022-10-25T15:57:07.337Z,15.98
2022-10-25T16:02:21.857Z,15.83
2022-10-25T16:07:27.776Z,15.56
2022-10-25T16:12:37.749Z,15.62
2022-10-25T16:17:47.967Z,15.51
2022-10-25T16:22:54.742Z,15.17
2022-10-25T16:27:59.563Z,14.86
2022-10-25T16:33:06.970Z,14.82
2022-10-25T16:38:12.158Z,14.87
2022-10-25T16:43:17.952Z,14.57
2022-10-25T16:48:26.468Z,14.17
2022-10-25T16:53:31.980Z,13.79
2022-10-25T16:58:37.018Z,13.83
2022-10-25T17:03:44.678Z,14.09
2022-10-25T17:08:50.328Z,14.21
2022-10-25T17:13:55.083Z,13.66
2022-10-25T17:19:03.318Z,13.32
2022-10-25T17:24:10.833Z,13.18
2022-10-25T17:29:15.613Z,13.47
2022-10-25T17:34:22.999Z,13.83
2022-10-25T17:39:28.096Z,13.85
2022-10-25T17:44:33.181Z,12.83
2022-10-25T17:49:40.689Z,12.46
2022-10-25T17:54:45.615Z,12.48
2022-10-25T17:59:50.544Z,12.52
2022-10-25T18:10:24.185Z,12.60
2022-10-25T18:15:29.950Z,12.32
2022-10-25T18:20:40.600Z,12.19
2022-10-25T18:25:53.601Z,12.01
2022-10-25T18:31:01.910Z,12.43
2022-10-25T18:36:15.054Z,12.77
2022-10-25T18:41:22.140Z,12.00
2022-10-25T18:46:32.053Z,11.49
2022-10-25T18:51:40.717Z,11.61
2022-10-25T18:56:48.675Z,11.59
2022-10-25T19:01:53.841Z,11.64
2022-10-25T19:07:04.292Z,11.50
2022-10-25T19:12:09.379Z,11.07
2022-10-25T19:17:14.293Z,11.00
2022-10-25T19:22:21.982Z,11.11
2022-10-25T19:27:29.071Z,11.14
2022-10-25T19:32:36.572Z,11.31
2022-10-25T19:37:44.757Z,11.51
2022-10-25T19:42:50.434Z,11.25
2022-10-25T19:47:57.148Z,10.88
2022-10-25T19:53:04.930Z,10.32
2022-10-25T19:58:10.546Z,10.27
2022-10-25T20:03:15.826Z,10.26
2022-10-25T20:08:23.936Z,10.46
2022-10-25T20:13:28.877Z,10.79
2022-10-25T20:18:35.956Z,10.88
2022-10-25T20:23:49.391Z,11.31
2022-10-25T20:28:55.792Z,10.61
2022-10-25T20:34:01.673Z,10.14
2022-10-25T20:39:09.192Z,10.13
2022-10-25T20:44:14.834Z,10.04
2022-10-25T20:49:19.753Z,10.07
2022-10-25T20:54:29.428Z,10.32
2022-10-25T20:59:34.409Z,10.46
2022-10-25T21:04:53.020Z,10.34
2022-10-25T21:10:01.469Z,10.08
2022-10-25T21:15:11.854Z,9.90
2022-10-25T21:20:17.600Z,9.71
2022-10-25T21:25:25.643Z,9.83
2022-10-25T21:30:30.538Z,9.96
2022-10-25T21:35:35.534Z,10.05
2022-10-25T21:40:43.311Z,9.88
2022-10-25T21:45:48.075Z,9.77
2022-10-25T21:50:58.625Z,9.83
2022-10-25T21:56:13.221Z,9.87
2022-10-25T22:01:19.843Z,9.62
2022-10-25T22:06:27.798Z,9.63
2022-10-25T22:11:37.476Z,9.58
2022-10-25T22:16:42.836Z,9.62
2022-10-25T22:21:48.002Z,9.59
2022-10-25T22:26:56.267Z,9.58
2022-10-25T22:32:01.096Z,9.55
2022-10-25T22:37:05.885Z,9.46
2022-10-25T22:42:14.121Z,9.42
2022-10-25T22:47:18.954Z,9.49
2022-10-25T22:52:23.976Z,9.43
2022-10-25T22:57:32.747Z,9.16
2022-10-25T23:02:37.489Z,9.29
2022-10-25T23:07:42.352Z,9.15
2022-10-25T23:12:51.952Z,9.10
2022-10-25T23:17:56.676Z,9.15
2022-10-25T23:23:01.380Z,8.95
2022-10-25T23:28:09.027Z,8.96
2022-10-25T23:33:15.523Z,8.83
2022-10-25T23:38:20.402Z,8.87
2022-10-25T23:43:27.796Z,8.71
2022-10-25T23:48:33.025Z,8.52
2022-10-25T23:53:38.204Z,8.66
2022-10-25T23:58:45.773Z,8.71
